Time;durP1;ratioP1;P1;durP2;ratioP2;P2;SDS_P1;SDS_P2;PMS_P1;PMS_P2;Temp;Humidity;BMP_temperature;BMP_pressure;BME280_temperature;BME280_humidity;BME280_pressure;Samples;Min_cycle;Max_cycle;Signal;HPM_P1;HPM_P2
2021/09/28 00:02:10;;;;;;;11.27;4.43;;;36.50;36.20;;;;;;5090209;28;21017;-61
2021/09/28 00:04:38;;;;;;;15.88;4.82;;;36.40;36.10;;;;;;5072809;28;20072;-61
2021/09/28 00:07:04;;;;;;;16.40;4.90;;;36.30;36.20;;;;;;5073529;28;20216;-60
2021/09/28 00:09:30;;;;;;;9.07;4.20;;;36.30;37.10;;;;;;5073396;28;20088;-61
2021/09/28 00:11:57;;;;;;;12.90;4.28;;;36.30;37.00;;;;;;5090579;28;20567;-60
2021/09/28 00:14:24;;;;;;;8.32;3.97;;;36.20;36.80;;;;;;5091946;28;20109;-62
2021/09/28 00:16:51;;;;;;;14.82;4.57;;;36.10;36.50;;;;;;5091327;28;20522;-59
2021/09/28 00:19:17;;;;;;;9.35;4.05;;;36.10;36.90;;;;;;5073666;28;20059;-61
2021/09/28 00:21:44;;;;;;;15.23;4.47;;;36.10;37.10;;;;;;5073103;28;20078;-61
2021/09/28 00:24:11;;;;;;;21.35;4.65;;;36.00;37.30;;;;;;5090051;28;20132;-61
2021/09/28 00:26:37;;;;;;;13.27;4.47;;;36.00;37.00;;;;;;5088881;28;20078;-61
2021/09/28 00:29:04;;;;;;;13.95;4.75;;;35.90;48.40;;;;;;5091048;28;20031;-60
2021/09/28 00:31:30;;;;;;;14.10;4.55;;;35.80;36.60;;;;;;5089673;28;20096;-59
2021/09/28 00:33:57;;;;;;;12.82;4.18;;;35.80;37.10;;;;;;5091245;28;20084;-61
2021/09/28 00:36:23;;;;;;;11.90;4.50;;;35.80;37.80;;;;;;5090651;28;20436;-61
2021/09/28 00:38:51;;;;;;;9.20;4.13;;;35.70;37.90;;;;;;5091063;28;20079;-61
2021/09/28 00:41:17;;;;;;;11.05;4.20;;;35.60;37.60;;;;;;5089526;28;20111;-61
2021/09/28 00:43:48;;;;;;;16.60;4.70;;;35.60;37.80;;;;;;5073416;28;20077;-63
2021/09/28 00:46:16;;;;;;;11.93;4.93;;;35.60;37.70;;;;;;5091819;28;20180;-64
2021/09/28 00:48:52;;;;;;;8.85;4.32;;;35.50;38.20;;;;;;5091546;28;20526;-63
2021/09/28 00:51:19;;;;;;;9.02;3.90;;;35.40;37.90;;;;;;5075032;28;20494;-64
2021/09/28 00:53:50;;;;;;;10.95;4.05;;;35.30;38.20;;;;;;5072841;28;20510;-63
2021/09/28 00:56:20;;;;;;;21.38;4.53;;;35.20;38.20;;;;;;5092034;28;20078;-63
2021/09/28 00:58:47;;;;;;;8.93;4.10;;;35.10;38.40;;;;;;5096814;28;20114;-65
2021/09/28 01:01:18;;;;;;;18.02;4.82;;;35.00;38.30;;;;;;5090486;28;20068;-65
2021/09/28 01:03:44;;;;;;;13.30;4.25;;;35.00;38.40;;;;;;5089380;28;20476;-65
2021/09/28 01:06:11;;;;;;;12.77;4.18;;;34.90;38.60;;;;;;5091062;28;20079;-66
2021/09/28 01:08:37;;;;;;;21.98;4.50;;;34.80;38.70;;;;;;5089618;28;20096;-65
2021/09/28 01:11:04;;;;;;;17.05;4.78;;;34.70;38.70;;;;;;5089704;28;20115;-64
2021/09/28 01:13:30;;;;;;;26.55;4.75;;;34.70;38.80;;;;;;5098434;28;20075;-64
2021/09/28 01:15:59;;;;;;;19.27;4.57;;;34.60;38.90;;;;;;5095844;28;20196;-63
2021/09/28 01:18:31;;;;;;;20.00;4.50;;;34.60;39.00;;;;;;5090609;28;20067;-64
2021/09/28 01:20:59;;;;;;;17.67;5.47;;;34.50;39.20;;;;;;5090568;28;20508;-65
2021/09/28 01:23:26;;;;;;;17.48;5.03;;;34.40;39.00;;;;;;5092350;28;20118;-65
2021/09/28 01:25:53;;;;;;;22.67;5.00;;;34.50;39.10;;;;;;5089663;28;20078;-64
2021/09/28 01:28:20;;;;;;;19.02;5.47;;;34.40;39.20;;;;;;5090114;28;20170;-64
2021/09/28 01:30:46;;;;;;;21.35;5.10;;;34.30;39.10;;;;;;5073624;28;20111;-64
2021/09/28 01:33:13;;;;;;;14.70;4.90;;;34.30;39.20;;;;;;5089742;28;20538;-65
2021/09/28 01:35:40;;;;;;;21.45;4.85;;;34.20;39.20;;;;;;5073729;28;20076;-65
2021/09/28 01:38:07;;;;;;;12.32;4.97;;;34.20;39.10;;;;;;5090101;28;20071;-66
2021/09/28 01:40:36;;;;;;;24.30;5.40;;;34.10;39.30;;;;;;5088927;28;20071;-63
2021/09/28 01:43:14;;;;;;;12.30;4.55;;;34.10;39.40;;;;;;5090112;28;20072;-64
2021/09/28 01:45:44;;;;;;;18.77;4.65;;;34.00;40.10;;;;;;5087633;28;20540;-63
2021/09/28 01:48:11;;;;;;;23.20;4.63;;;33.90;40.50;;;;;;5090523;28;20085;-64
2021/09/28 01:50:38;;;;;;;21.20;4.22;;;33.90;41.00;;;;;;5076752;28;20136;-64
2021/09/28 01:53:05;;;;;;;17.67;4.22;;;33.80;41.80;;;;;;5096193;28;20080;-65
2021/09/28 01:55:32;;;;;;;19.48;4.53;;;33.70;42.20;;;;;;5088517;28;20094;-65
2021/09/28 01:57:59;;;;;;;24.30;3.67;;;33.70;42.70;;;;;;5078813;28;20076;-63
2021/09/28 02:00:27;;;;;;;14.82;3.88;;;33.60;43.10;;;;;;5089267;28;20084;-63
2021/09/28 02:02:53;;;;;;;21.77;4.78;;;33.50;43.90;;;;;;5089386;28;20156;-63
2021/09/28 02:05:20;;;;;;;25.08;5.05;;;33.40;44.40;;;;;;5089570;28;20159;-65
2021/09/28 02:07:46;;;;;;;18.63;4.18;;;33.40;45.00;;;;;;5088684;28;20082;-63
2021/09/28 02:10:21;;;;;;;20.40;4.47;;;33.30;46.10;;;;;;5089526;28;20121;-64
2021/09/28 02:12:47;;;;;;;19.25;3.90;;;33.20;47.00;;;;;;5093443;28;20160;-62
2021/09/28 02:15:14;;;;;;;24.52;3.88;;;33.10;47.90;;;;;;5092250;28;20076;-63
2021/09/28 02:17:41;;;;;;;21.25;3.80;;;33.00;48.50;;;;;;5089857;28;20492;-63
2021/09/28 02:20:09;;;;;;;17.50;4.25;;;32.90;49.10;;;;;;5089653;28;20152;-63
2021/09/28 02:22:35;;;;;;;27.80;5.50;;;32.80;49.70;;;;;;5090650;28;20432;-65
2021/09/28 02:25:02;;;;;;;36.42;9.13;;;32.80;50.10;;;;;;5089131;28;21083;-63
2021/09/28 02:27:29;;;;;;;26.83;7.45;;;32.70;50.60;;;;;;5090427;28;20531;-64
2021/09/28 02:29:56;;;;;;;29.23;5.35;;;32.60;50.90;;;;;;5091430;28;20103;-63
2021/09/28 02:32:23;;;;;;;29.13;5.55;;;32.50;51.10;;;;;;5088838;28;20175;-64
2021/09/28 02:34:49;;;;;;;24.42;5.07;;;32.40;51.20;;;;;;5090061;28;20065;-63
2021/09/28 02:37:18;;;;;;;26.58;5.85;;;32.40;51.40;;;;;;5090808;28;20069;-62
2021/09/28 02:39:45;;;;;;;26.77;6.13;;;32.30;51.40;;;;;;5090590;28;20087;-63
2021/09/28 02:42:12;;;;;;;27.02;8.07;;;32.20;51.50;;;;;;5093707;28;20501;-64
2021/09/28 02:44:39;;;;;;;30.60;9.45;;;32.20;51.60;;;;;;5090058;28;20104;-63
2021/09/28 02:47:06;;;;;;;30.83;9.27;;;32.10;51.60;;;;;;5091566;28;20099;-64
2021/09/28 02:49:32;;;;;;;26.00;7.95;;;32.10;51.80;;;;;;5076682;28;20104;-65
2021/09/28 02:51:59;;;;;;;24.67;8.35;;;32.00;51.90;;;;;;5092912;28;20523;-64
2021/09/28 02:54:25;;;;;;;25.30;7.32;;;31.90;52.20;;;;;;5092719;28;20095;-62
2021/09/28 02:56:52;;;;;;;26.45;7.65;;;31.80;51.90;;;;;;5076707;28;20070;-62
2021/09/28 02:59:18;;;;;;;35.38;9.68;;;31.80;52.50;;;;;;5093957;28;20073;-60
2021/09/28 03:01:45;;;;;;;32.00;9.57;;;31.70;52.40;;;;;;5092389;28;20183;-61
2021/09/28 03:04:12;;;;;;;30.02;9.48;;;31.70;53.00;;;;;;5092584;28;20087;-63
2021/09/28 03:06:38;;;;;;;27.63;8.25;;;31.60;53.10;;;;;;5093794;28;20071;-64
2021/09/28 03:09:07;;;;;;;23.42;8.52;;;;;;;;;;5075883;28;20545;-63
2021/09/28 03:11:37;;;;;;;23.33;8.45;;;31.50;53.00;;;;;;5095163;28;20078;-62
2021/09/28 03:14:06;;;;;;;23.23;6.80;;;31.50;53.20;;;;;;5093230;28;20434;-63
2021/09/28 03:16:32;;;;;;;19.65;7.00;;;31.40;53.90;;;;;;5092843;28;20066;-63
2021/09/28 03:18:59;;;;;;;21.92;4.80;;;31.40;54.20;;;;;;5092897;28;20139;-63
2021/09/28 03:21:25;;;;;;;21.35;5.30;;;31.20;54.10;;;;;;5093486;28;20073;-64
2021/09/28 03:23:52;;;;;;;11.38;3.70;;;31.20;54.80;;;;;;5096906;28;20548;-67
2021/09/28 03:26:18;;;;;;;12.95;3.35;;;31.20;55.20;;;;;;5101474;28;20553;-65
2021/09/28 03:28:45;;;;;;;8.95;2.90;;;31.10;55.40;;;;;;5092617;28;20091;-64
2021/09/28 03:31:11;;;;;;;10.50;3.00;;;31.00;56.10;;;;;;5092818;28;20113;-66
2021/09/28 03:33:38;;;;;;;11.32;2.60;;;31.00;56.40;;;;;;5092400;28;20545;-64
2021/09/28 03:36:04;;;;;;;8.43;2.22;;;31.00;56.70;;;;;;5092951;28;20522;-63
2021/09/28 03:38:31;;;;;;;9.48;2.35;;;30.90;56.70;;;;;;5092516;28;20087;-63
2021/09/28 03:40:57;;;;;;;14.35;2.70;;;30.90;56.80;;;;;;5091387;28;20083;-65
2021/09/28 03:43:26;;;;;;;7.13;2.28;;;30.90;57.10;;;;;;5091949;28;20112;-64
2021/09/28 03:45:56;;;;;;;9.65;2.40;;;30.90;57.20;;;;;;5093151;28;20137;-65
2021/09/28 03:48:23;;;;;;;8.93;2.80;;;30.90;57.50;;;;;;5092422;28;20077;-66
2021/09/28 03:50:49;;;;;;;6.22;2.58;;;30.80;57.80;;;;;;5090625;28;20084;-65
2021/09/28 03:53:16;;;;;;;18.20;6.60;;;30.80;58.10;;;;;;5091360;28;20407;-61
2021/09/28 03:55:42;;;;;;;7.95;3.63;;;31.00;58.10;;;;;;5090449;28;20069;-60
2021/09/28 03:58:11;;;;;;;16.05;3.30;;;31.60;57.30;;;;;;5074643;28;20084;-60
2021/09/28 04:00:38;;;;;;;15.05;3.40;;;31.70;57.70;;;;;;5093043;28;20092;-59
2021/09/28 04:03:06;;;;;;;15.60;3.95;;;32.00;57.00;;;;;;5074184;28;20076;-59
2021/09/28 04:05:33;;;;;;;14.57;3.92;;;32.00;56.90;;;;;;5090707;28;20087;-59
2021/09/28 04:07:59;;;;;;;9.55;4.28;;;32.30;56.70;;;;;;5090767;28;20120;-60
2021/09/28 04:10:26;;;;;;;17.50;5.22;;;32.40;56.30;;;;;;5090416;28;20204;-60
2021/09/28 04:12:52;;;;;;;13.88;5.57;;;32.20;56.90;;;;;;5090412;28;20175;-59
2021/09/28 04:15:25;;;;;;;16.50;5.82;;;32.10;57.60;;;;;;5092881;28;20104;-60
2021/09/28 04:17:52;;;;;;;15.10;5.90;;;32.40;57.30;;;;;;5093109;28;20125;-60
2021/09/28 04:20:19;;;;;;;15.45;5.60;;;32.70;57.10;;;;;;5091560;28;20075;-60
2021/09/28 04:22:46;;;;;;;14.63;5.38;;;32.70;56.80;;;;;;5074542;28;20068;-60
2021/09/28 04:25:13;;;;;;;16.42;5.35;;;33.10;56.00;;;;;;5090971;28;20450;-59
2021/09/28 04:27:41;;;;;;;12.50;4.10;;;33.50;55.60;;;;;;5057482;28;20682;-60
2021/09/28 04:30:08;;;;;;;11.88;3.72;;;33.70;55.30;;;;;;5089003;28;20108;-60
2021/09/28 04:32:34;;;;;;;10.25;3.85;;;33.70;54.80;;;;;;5091361;28;20093;-64
2021/09/28 04:35:03;;;;;;;10.77;2.53;;;33.30;55.70;;;;;;5091298;28;20078;-59
2021/09/28 04:37:31;;;;;;;8.18;2.60;;;33.50;55.90;;;;;;5073716;28;20063;-60
2021/09/28 04:39:57;;;;;;;6.75;2.65;;;33.70;55.30;;;;;;5089814;28;20119;-61
2021/09/28 04:42:23;;;;;;;13.63;2.72;;;33.90;54.80;;;;;;5091058;28;20429;-61
2021/09/28 04:44:50;;;;;;;6.38;3.70;;;33.70;54.90;;;;;;5073468;28;20075;-60
2021/09/28 04:47:16;;;;;;;9.27;3.50;;;33.30;55.80;;;;;;5073388;28;20623;-62
2021/09/28 04:49:42;;;;;;;10.65;3.15;;;33.30;56.20;;;;;;5090856;28;20180;-60
2021/09/28 04:52:09;;;;;;;6.30;2.33;;;33.50;56.00;;;;;;5092000;28;20157;-60
2021/09/28 04:54:35;;;;;;;6.05;2.20;;;34.00;54.60;;;;;;5101042;28;20064;-61
2021/09/28 04:57:02;;;;;;;13.25;2.78;;;33.50;55.20;;;;;;5092603;28;20071;-61
2021/09/28 04:59:28;;;;;;;9.30;2.50;;;33.20;56.50;;;;;;5089833;28;20086;-59
2021/09/28 05:01:54;;;;;;;8.23;2.78;;;34.00;55.30;;;;;;5088742;28;20072;-60
2021/09/28 05:04:21;;;;;;;9.95;2.80;;;34.40;54.10;;;;;;5090151;28;20118;-59
2021/09/28 05:06:47;;;;;;;8.82;2.70;;;34.50;53.50;;;;;;5091863;28;20155;-59
2021/09/28 05:09:13;;;;;;;6.43;2.80;;;34.90;52.90;;;;;;5090865;28;20077;-62
2021/09/28 05:11:40;;;;;;;8.02;3.97;;;34.30;53.50;;;;;;5088193;28;20109;-59
2021/09/28 05:14:06;;;;;;;8.52;3.75;;;34.20;53.70;;;;;;5088132;28;20071;-60
2021/09/28 05:16:33;;;;;;;8.82;4.00;;;33.90;54.40;;;;;;5089003;28;20075;-60
2021/09/28 05:18:59;;;;;;;6.90;3.30;;;33.70;55.00;;;;;;5088992;28;20112;-60
2021/09/28 05:21:26;;;;;;;8.13;4.50;;;33.50;54.80;;;;;;5088200;28;20065;-59
2021/09/28 05:23:52;;;;;;;9.55;3.70;;;33.60;55.00;;;;;;5088637;28;20076;-60
2021/09/28 05:26:19;;;;;;;11.35;3.70;;;33.50;55.10;;;;;;5088425;28;20080;-61
2021/09/28 05:28:45;;;;;;;12.73;4.05;;;33.50;54.50;;;;;;5089521;28;20080;-60
2021/09/28 05:31:11;;;;;;;14.05;4.22;;;33.50;54.20;;;;;;5088509;28;20112;-60
2021/09/28 05:33:38;;;;;;;14.90;3.97;;;33.50;53.60;;;;;;5088756;28;20081;-61
2021/09/28 05:36:04;;;;;;;13.30;3.83;;;33.30;53.80;;;;;;5091308;28;20073;-57
2021/09/28 05:38:31;;;;;;;10.25;4.30;;;33.30;54.00;;;;;;5071940;28;20424;-60
2021/09/28 05:40:58;;;;;;;13.60;5.05;;;33.20;53.90;;;;;;5088434;28;20076;-59
2021/09/28 05:43:25;;;;;;;8.13;4.43;;;33.00;54.30;;;;;;5089193;28;20101;-61
2021/09/28 05:45:52;;;;;;;12.68;4.72;;;33.00;54.30;;;;;;5088706;28;20164;-59
2021/09/28 05:48:18;;;;;;;8.57;4.55;;;33.30;53.60;;;;;;5088636;28;20073;-59
2021/09/28 05:50:46;;;;;;;12.55;5.00;;;32.90;53.70;;;;;;5086435;28;20099;-60
2021/09/28 05:53:12;;;;;;;11.43;5.22;;;32.70;54.10;;;;;;5087061;28;20103;-59
2021/09/28 05:55:39;;;;;;;20.08;5.60;;;33.00;53.40;;;;;;5085646;28;20068;-60
2021/09/28 05:58:05;;;;;;;19.52;5.35;;;32.90;53.40;;;;;;5088236;28;20530;-62
2021/09/28 06:00:32;;;;;;;16.65;5.38;;;32.80;53.70;;;;;;5091118;28;20071;-60
2021/09/28 06:02:58;;;;;;;10.63;4.72;;;32.60;53.90;;;;;;5085937;28;20544;-59
2021/09/28 06:05:25;;;;;;;14.35;5.78;;;32.50;53.90;;;;;;5086942;28;20118;-59
2021/09/28 06:07:51;;;;;;;16.60;5.40;;;32.40;54.20;;;;;;5071495;28;20622;-59
2021/09/28 06:10:18;;;;;;;14.80;6.13;;;32.30;53.50;;;;;;5085593;28;20079;-59
2021/09/28 06:12:44;;;;;;;15.68;5.80;;;32.50;52.60;;;;;;5086624;28;20457;-60
2021/09/28 06:15:11;;;;;;;12.45;5.10;;;32.40;51.10;;;;;;5087690;28;20083;-65
2021/09/28 06:17:38;;;;;;;12.57;4.78;;;32.20;51.70;;;;;;5070993;28;20461;-60
2021/09/28 06:20:05;;;;;;;15.32;5.13;;;32.20;52.40;;;;;;5087198;28;20077;-61
2021/09/28 06:22:31;;;;;;;16.23;4.40;;;32.30;52.80;;;;;;5071234;28;20098;-61
2021/09/28 06:24:58;;;;;;;13.18;4.40;;;32.20;53.20;;;;;;5086321;28;20095;-61
2021/09/28 06:27:25;;;;;;;10.73;4.40;;;32.20;53.20;;;;;;5072860;28;20072;-61
2021/09/28 06:29:52;;;;;;;14.82;4.10;;;32.20;53.50;;;;;;5085570;28;20080;-58
2021/09/28 06:32:22;;;;;;;11.20;4.63;;;32.30;53.20;;;;;;5085185;28;20166;-60
2021/09/28 06:34:49;;;;;;;10.88;3.90;;;32.20;53.30;;;;;;5084762;28;20092;-60
2021/09/28 06:37:16;;;;;;;10.80;4.30;;;32.10;53.70;;;;;;5088317;28;20119;-60
2021/09/28 06:39:42;;;;;;;13.73;4.03;;;31.90;54.10;;;;;;5087932;28;20067;-60
2021/09/28 06:42:09;;;;;;;9.57;3.50;;;32.00;53.90;;;;;;5086204;28;20122;-63
2021/09/28 06:44:35;;;;;;;13.15;3.22;;;31.80;53.90;;;;;;5084930;28;20215;-59
2021/09/28 06:47:02;;;;;;;10.27;3.53;;;31.70;53.70;;;;;;5085789;28;20108;-60
2021/09/28 06:49:28;;;;;;;8.55;3.00;;;31.80;53.40;;;;;;5085044;28;20166;-59
2021/09/28 06:51:55;;;;;;;13.95;3.20;;;31.90;53.30;;;;;;5090057;28;20559;-59
2021/09/28 06:54:21;;;;;;;13.32;3.60;;;31.90;53.10;;;;;;5071435;28;20674;-59
2021/09/28 06:56:48;;;;;;;14.60;3.42;;;31.60;53.30;;;;;;5085323;28;20138;-59
2021/09/28 06:59:14;;;;;;;13.60;3.50;;;31.50;53.40;;;;;;5085435;28;20114;-61
2021/09/28 07:01:41;;;;;;;9.93;3.13;;;31.40;53.30;;;;;;5086611;28;20080;-62
2021/09/28 07:04:08;;;;;;;6.65;2.85;;;31.20;53.40;;;;;;5070612;28;20103;-60
2021/09/28 07:06:34;;;;;;;10.32;3.17;;;31.20;53.40;;;;;;5088795;28;20077;-60
2021/09/28 07:09:02;;;;;;;9.00;2.80;;;31.10;54.00;;;;;;5087363;28;20075;-61
2021/09/28 07:11:29;;;;;;;13.45;2.70;;;31.20;53.90;;;;;;5086042;28;20529;-60
2021/09/28 07:13:55;;;;;;;11.88;2.70;;;31.20;53.90;;;;;;5070148;28;20547;-60
2021/09/28 07:16:22;;;;;;;10.27;2.83;;;31.40;53.30;;;;;;5086786;28;20103;-61
2021/09/28 07:18:48;;;;;;;6.32;2.42;;;31.30;53.10;;;;;;5086488;28;20074;-60
2021/09/28 07:21:15;;;;;;;9.73;2.80;;;31.30;53.20;;;;;;5088487;28;20100;-60
2021/09/28 07:23:42;;;;;;;7.60;2.35;;;31.30;53.40;;;;;;5068509;28;20594;-59
2021/09/28 07:26:09;;;;;;;11.30;2.70;;;31.10;53.70;;;;;;5069905;28;20167;-59
2021/09/28 07:28:37;;;;;;;9.82;2.42;;;30.80;54.50;;;;;;5069272;28;20482;-59
2021/09/28 07:31:04;;;;;;;5.80;2.58;;;30.70;54.80;;;;;;5086927;28;20170;-60
2021/09/28 07:33:31;;;;;;;14.57;3.08;;;30.70;54.70;;;;;;5087056;28;20076;-58
2021/09/28 07:35:57;;;;;;;7.05;2.83;;;30.90;55.00;;;;;;5090990;28;20071;-60
2021/09/28 07:38:24;;;;;;;8.75;2.30;;;30.80;54.60;;;;;;5077078;28;20069;-60
2021/09/28 07:40:51;;;;;;;31.65;4.20;;;30.70;55.30;;;;;;5089997;28;20135;-60
2021/09/28 07:43:19;;;;;;;18.30;3.83;;;30.80;55.00;;;;;;5091817;28;20163;-60
2021/09/28 07:45:46;;;;;;;11.60;4.63;;;30.70;54.40;;;;;;5088160;28;20103;-60
2021/09/28 07:48:13;;;;;;;19.27;6.25;;;30.50;53.30;;;;;;5089843;28;20119;-60
2021/09/28 07:50:39;;;;;;;15.65;6.55;;;30.40;52.50;;;;;;5088780;28;20080;-60
2021/09/28 07:53:06;;;;;;;13.75;6.55;;;30.30;51.90;;;;;;5089992;28;20114;-62
2021/09/28 07:55:33;;;;;;;13.38;6.65;;;30.40;51.80;;;;;;5089063;28;20580;-59
2021/09/28 07:58:00;;;;;;;17.45;7.70;;;30.40;51.50;;;;;;5088876;28;20081;-59
2021/09/28 08:00:26;;;;;;;16.65;6.25;;;30.40;51.00;;;;;;5089785;28;20077;-59
2021/09/28 08:02:53;;;;;;;18.00;6.93;;;30.30;51.60;;;;;;5088652;28;20099;-60
2021/09/28 08:05:19;;;;;;;18.80;6.43;;;30.10;52.20;;;;;;5087695;28;20073;-60
2021/09/28 08:07:46;;;;;;;12.13;6.30;;;30.10;53.10;;;;;;5089347;28;20065;-60
2021/09/28 08:10:15;;;;;;;18.83;6.50;;;29.90;53.20;;;;;;5090003;28;20648;-59
2021/09/28 08:12:42;;;;;;;17.33;6.55;;;29.80;54.10;;;;;;5088014;28;20108;-59
2021/09/28 08:15:10;;;;;;;14.55;6.03;;;29.90;54.70;;;;;;5089313;28;20069;-59
2021/09/28 08:17:38;;;;;;;16.30;4.93;;;30.00;55.30;;;;;;5088629;28;20489;-59
2021/09/28 08:20:08;;;;;;;11.90;4.22;;;29.90;56.20;;;;;;5089840;28;20069;-60
2021/09/28 08:22:38;;;;;;;18.92;4.10;;;29.90;57.00;;;;;;5086681;28;20100;-59
2021/09/28 08:25:10;;;;;;;16.67;3.70;;;30.00;57.50;;;;;;5090377;28;20079;-60
2021/09/28 08:30:22;;;;;;;15.25;5.20;;;29.80;58.40;;;;;;5090258;28;20161;-58
2021/09/28 08:32:49;;;;;;;10.85;5.03;;;29.70;58.90;;;;;;5090926;28;20115;-60
2021/09/28 08:35:15;;;;;;;9.18;4.20;;;29.60;59.30;;;;;;5089089;28;20066;-60
2021/09/28 08:37:42;;;;;;;9.77;3.83;;;29.50;59.50;;;;;;5088131;28;20535;-60
2021/09/28 08:40:19;;;;;;;8.23;4.15;;;29.40;59.40;;;;;;5088202;28;20080;-59
2021/09/28 08:42:46;;;;;;;12.70;6.75;;;29.40;58.30;;;;;;5088302;28;20518;-59
2021/09/28 08:45:13;;;;;;;17.65;7.90;;;29.20;54.70;;;;;;5089411;28;20222;-58
2021/09/28 08:47:44;;;;;;;19.02;9.25;;;29.10;53.60;;;;;;5091560;28;20092;-61
2021/09/28 08:50:20;;;;;;;15.60;9.15;;;29.10;88.60;;;;;;5087396;28;20085;-57
2021/09/28 08:52:49;;;;;;;17.17;9.98;;;29.10;90.30;;;;;;5089619;28;20105;-59
2021/09/28 08:55:16;;;;;;;18.02;10.90;;;29.50;52.50;;;;;;5088083;28;20078;-59
2021/09/28 08:57:42;;;;;;;18.13;10.90;;;29.10;48.70;;;;;;5089989;28;20514;-60
2021/09/28 09:00:18;;;;;;;22.80;12.32;;;28.50;71.00;;;;;;5088755;28;20424;-59
2021/09/28 09:02:47;;;;;;;17.88;12.07;;;28.80;48.70;;;;;;5089074;28;20111;-59
2021/09/28 09:05:14;;;;;;;16.40;12.13;;;28.70;49.00;;;;;;5091002;28;20507;-59
2021/09/28 09:07:42;;;;;;;17.25;12.32;;;28.50;60.80;;;;;;5086787;28;20466;-59
2021/09/28 09:10:10;;;;;;;19.88;12.07;;;28.50;49.90;;;;;;5085895;28;20077;-59
2021/09/28 09:12:40;;;;;;;19.88;12.75;;;28.50;50.00;;;;;;5088253;28;20554;-59
2021/09/28 09:15:35;;;;;;;21.63;12.95;;;28.50;49.60;;;;;;5089134;28;20062;-59
2021/09/28 09:18:07;;;;;;;17.40;12.40;;;28.40;49.10;;;;;;5006562;28;20100;-59
2021/09/28 09:20:43;;;;;;;21.40;11.88;;;28.40;49.80;;;;;;5003776;28;20115;-59
2021/09/28 09:23:32;;;;;;;20.40;12.60;;;28.30;50.40;;;;;;5003383;28;20090;-59
2021/09/28 09:26:07;;;;;;;20.13;12.88;;;28.20;50.00;;;;;;4990100;28;20086;-60
2021/09/28 09:28:37;;;;;;;16.35;11.40;;;28.10;50.50;;;;;;5002223;28;20109;-58
2021/09/28 09:31:14;;;;;;;16.60;11.63;;;28.30;50.30;;;;;;5016650;28;20145;-58
2021/09/28 09:33:41;;;;;;;17.00;11.02;;;;;;;;;;5002505;28;20494;-58
2021/09/28 09:36:08;;;;;;;18.98;10.43;;;;;;;;;;5006219;28;20093;-59
2021/09/28 09:38:43;;;;;;;22.42;10.57;;;28.40;51.00;;;;;;5003651;28;20193;-57
2021/09/28 09:41:10;;;;;;;16.92;10.32;;;28.30;51.80;;;;;;5003484;28;20123;-59
2021/09/28 09:43:36;;;;;;;19.02;10.07;;;28.30;51.40;;;;;;5020147;28;20176;-59
2021/09/28 09:46:15;;;;;;;21.35;10.73;;;28.20;50.70;;;;;;5020376;28;20447;-59
2021/09/28 09:48:43;;;;;;;17.33;11.60;;;;;;;;;;5018732;28;20559;-59
2021/09/28 09:51:20;;;;;;;17.08;11.38;;;28.10;50.20;;;;;;5020460;28;20181;-59
2021/09/28 09:53:59;;;;;;;18.38;11.38;;;28.10;49.80;;;;;;5037784;28;20085;-59
2021/09/28 09:56:44;;;;;;;22.73;12.73;;;28.10;50.00;;;;;;5086523;28;20537;-58
2021/09/28 09:59:11;;;;;;;18.52;11.70;;;28.10;49.50;;;;;;5090088;28;20073;-61
2021/09/28 10:01:37;;;;;;;21.00;12.35;;;28.10;49.80;;;;;;5089558;28;20126;-59
2021/09/28 10:04:12;;;;;;;21.73;12.07;;;28.10;49.50;;;;;;5088484;28;20630;-59
2021/09/28 10:06:39;;;;;;;28.83;12.52;;;28.00;49.80;;;;;;5087285;28;20088;-59
2021/09/28 10:09:11;;;;;;;20.58;12.85;;;28.00;50.40;;;;;;5071528;28;20118;-61
2021/09/28 10:11:39;;;;;;;26.85;12.57;;;28.00;50.70;;;;;;5090044;28;20136;-59
2021/09/28 10:14:06;;;;;;;21.42;12.02;;;28.00;50.50;;;;;;5071759;28;20531;-59
2021/09/28 10:16:37;;;;;;;19.90;12.30;;;28.00;50.00;;;;;;5087877;28;20102;-59
2021/09/28 10:19:28;;;;;;;19.02;13.18;;;27.90;50.00;;;;;;5088128;28;20064;-59
2021/09/28 10:21:57;;;;;;;22.77;13.18;;;27.80;50.20;;;;;;5088142;28;20596;-59
2021/09/28 10:24:28;;;;;;;27.45;15.05;;;27.80;49.60;;;;;;5071144;28;20617;-59
2021/09/28 10:27:01;;;;;;;24.33;14.68;;;27.80;49.10;;;;;;5088263;28;20526;-58
2021/09/28 10:29:42;;;;;;;20.13;15.75;;;27.70;49.10;;;;;;5087568;28;20077;-58
2021/09/28 10:32:29;;;;;;;25.88;16.88;;;27.70;49.00;;;;;;5071069;28;20624;-60
2021/09/28 10:35:05;;;;;;;35.88;17.65;;;27.60;48.30;;;;;;5086078;28;20081;-59
2021/09/28 10:37:50;;;;;;;29.50;17.38;;;27.50;48.40;;;;;;5094063;28;20083;-60
2021/09/28 10:40:20;;;;;;;30.73;18.45;;;27.50;48.60;;;;;;5086010;28;20068;-59
2021/09/28 10:42:59;;;;;;;34.92;16.05;;;27.40;48.40;;;;;;5087337;28;20115;-59
2021/09/28 10:45:29;;;;;;;27.73;14.50;;;27.20;48.40;;;;;;5087386;28;20514;-61
2021/09/28 10:48:16;;;;;;;25.75;14.80;;;27.20;48.30;;;;;;5087732;28;20091;-61
2021/09/28 10:50:45;;;;;;;22.00;14.35;;;27.20;48.10;;;;;;5086831;28;20073;-60
2021/09/28 10:53:20;;;;;;;26.70;15.27;;;27.20;48.20;;;;;;5056697;28;20465;-59
2021/09/28 10:55:57;;;;;;;30.27;16.55;;;27.20;47.80;;;;;;5086807;28;20075;-61
2021/09/28 10:58:25;;;;;;;31.33;17.00;;;27.20;48.30;;;;;;5069815;28;20072;-60
2021/09/28 11:00:54;;;;;;;33.25;17.15;;;27.10;47.50;;;;;;5071150;28;20069;-59
2021/09/28 11:03:51;;;;;;;27.42;16.77;;;27.00;47.30;;;;;;5087780;28;20115;-58
2021/09/28 11:06:37;;;;;;;27.95;17.60;;;26.80;47.90;;;;;;5087681;28;20080;-58
2021/09/28 11:09:04;;;;;;;30.17;15.75;;;27.90;73.30;;;;;;5089631;28;20076;-58
2021/09/28 11:11:30;;;;;;;24.80;14.00;;;26.50;59.30;;;;;;5090088;28;20095;-58
2021/09/28 11:14:01;;;;;;;23.55;14.07;;;26.70;48.10;;;;;;5073607;28;20093;-58
2021/09/28 11:16:28;;;;;;;21.35;14.07;;;26.70;48.40;;;;;;5073966;28;20591;-59
2021/09/28 11:18:59;;;;;;;19.75;13.80;;;26.70;48.20;;;;;;5095760;28;20072;-59
2021/09/28 11:21:26;;;;;;;22.13;14.40;;;26.70;48.20;;;;;;5074804;28;20493;-58
2021/09/28 11:23:54;;;;;;;22.65;14.57;;;26.60;48.10;;;;;;5091137;28;20490;-58
2021/09/28 11:26:38;;;;;;;25.77;15.20;;;26.70;48.50;;;;;;5090895;28;20134;-60
2021/09/28 11:29:05;;;;;;;24.58;13.68;;;;;;;;;;5090313;28;20449;-58
2021/09/28 11:31:36;;;;;;;23.80;14.25;;;26.40;48.40;;;;;;5089731;28;20108;-59
2021/09/28 11:34:03;;;;;;;20.65;14.25;;;;;;;;;;5056980;28;20095;-59
2021/09/28 11:36:38;;;;;;;21.45;14.90;;;26.20;48.80;;;;;;5091158;28;20133;-59
2021/09/28 11:39:08;;;;;;;24.17;14.10;;;26.20;49.00;;;;;;5074310;28;20069;-58
2021/09/28 11:41:37;;;;;;;23.73;14.38;;;26.20;49.50;;;;;;5089292;28;20081;-58
2021/09/28 11:44:04;;;;;;;23.90;13.65;;;26.20;49.40;;;;;;5088233;28;20085;-60
2021/09/28 11:46:32;;;;;;;26.45;13.98;;;26.20;49.90;;;;;;5089174;28;20127;-60
2021/09/28 11:49:11;;;;;;;20.88;12.80;;;26.10;49.90;;;;;;5091334;28;20136;-60
2021/09/28 11:51:40;;;;;;;22.27;13.60;;;26.00;50.80;;;;;;5090075;28;20087;-60
2021/09/28 11:54:10;;;;;;;23.00;13.95;;;26.00;50.90;;;;;;5088351;28;20073;-59
2021/09/28 11:56:41;;;;;;;21.92;13.05;;;26.10;50.80;;;;;;5073335;28;20119;-59
2021/09/28 11:59:18;;;;;;;22.92;13.93;;;26.10;50.80;;;;;;5088617;28;20072;-61
2021/09/28 12:01:46;;;;;;;21.98;13.65;;;26.00;50.10;;;;;;5087220;28;20024;-60
2021/09/28 12:07:10;;;;;;;25.48;13.98;;;26.10;50.90;;;;;;5088693;28;20084;-59
2021/09/28 12:09:40;;;;;;;26.15;14.00;;;26.10;51.10;;;;;;5080021;28;20119;-59
2021/09/28 12:12:11;;;;;;;19.27;13.70;;;26.10;50.90;;;;;;5087158;28;20088;-58
2021/09/28 12:14:51;;;;;;;20.58;12.38;;;26.10;50.70;;;;;;5089869;28;20072;-58
2021/09/28 12:17:19;;;;;;;21.80;14.18;;;26.00;50.90;;;;;;5088915;28;20088;-58
2021/09/28 12:20:08;;;;;;;21.00;13.50;;;25.90;51.50;;;;;;5090109;28;20077;-60
2021/09/28 12:22:45;;;;;;;22.27;14.02;;;25.90;51.60;;;;;;5089900;28;20092;-59
2021/09/28 12:25:22;;;;;;;21.85;13.57;;;25.70;52.70;;;;;;5088344;28;20230;-58
2021/09/28 12:27:59;;;;;;;21.45;13.57;;;25.70;52.30;;;;;;5090597;28;20129;-59
2021/09/28 12:30:28;;;;;;;23.75;14.27;;;25.70;51.80;;;;;;5088004;28;20611;-60
2021/09/28 12:32:56;;;;;;;32.60;14.40;;;25.60;52.30;;;;;;5088036;28;20120;-60
2021/09/28 12:35:27;;;;;;;26.40;13.77;;;25.70;52.00;;;;;;5089249;28;20415;-59
2021/09/28 12:37:56;;;;;;;22.58;13.90;;;25.70;51.60;;;;;;5087967;28;20095;-60
2021/09/28 12:40:29;;;;;;;20.13;14.38;;;25.70;51.50;;;;;;5073345;28;20069;-59
2021/09/28 12:43:02;;;;;;;22.08;14.55;;;25.70;51.90;;;;;;5074427;28;20107;-59
2021/09/28 12:45:28;;;;;;;25.15;14.90;;;25.60;51.60;;;;;;5089669;28;20088;-60
2021/09/28 12:48:01;;;;;;;26.48;13.80;;;25.60;51.40;;;;;;5088198;28;20538;-59
2021/09/28 12:50:31;;;;;;;28.17;14.40;;;25.50;51.50;;;;;;5089005;28;20076;-59
2021/09/28 12:53:04;;;;;;;25.15;15.20;;;25.60;51.50;;;;;;5074711;28;21136;-59